Boothbay Harbor, ME

12:11 AM EST on January 28, 2015 (GMT -0500)
Wiscasset | Change Station
CLOSE
Current Station
Airport
Location: Wiscasset,
Elevation: 69 ft
Nearby Weather Stations

Elev 69 ft 43.96 °N, 69.71 °W | Updated 18 minutes ago

Overcast
Overcast
13 °F
Feels Like 4 °F
N
6
Wind Variable Wind from Variable
Gusts 17 mph

Today
High -- | Low -- °F
--% Chance of Precip.
Yesterday
High -- | Low -- °F
Precip. -- in
6:59 AM 4:43 PM
First Quarter, 61% visible
Pressure 29.60 in
Visibility 1.2 miles
Clouds Overcast 1300 ft
Windchill 4 °F
Dew Point 8 °F
Humidity 81%
Rainfall 0.86 in
Snow Depth Not available.
UV 0 out of 12
Pollen .10 out of 12
Air Quality Not available.
Flu Activity Not available.
METAR KIWI 280453Z AUTO VRB05G15KT 1 1/4SM -SN OVC013 M11/M13 A2960 RMK AO2 SLP024 P0001 T11061133 410941128

More Conditions Fewer Conditions

Pressure 29.60 in
Visibility 1.2 miles
Clouds Overcast 1300 ft
Windchill 4 °F
Dew Point 8 °F
Humidity 81%
Rainfall 0.86 in
Snow Depth Not available.
UV 0 out of 12
Pollen .10 out of 12
Air Quality Not available.
Flu Activity Not available.
METAR KIWI 280453Z AUTO VRB05G15KT 1 1/4SM -SN OVC013 M11/M13 A2960 RMK AO2 SLP024 P0001 T11061133 410941128

More Conditions Fewer Conditions

10-Day Weather Forecast

Almanac

Astronomy

Jan. 28, 2015 Rise Set
Actual Time
Civil Twilight
Nautical Twilight
Astronomical Twilight
Moon
Length of Visible Light
Length of Day
Tomorrow will be .
, % of the Moon is Illuminated

Today's Extremes

State Highs State Lows

Community

WunderPhotos

Upload Photos

1,791,103 photos uploaded!

WunderBlogs® & News

Nearby

Air Quality

  Air Quality AQ Index Pollutant
Not available.

Snow Depth

Station Depth Elevation

Earthquake Activity

City Distance Mag. Time & Date
Minimum magnitude displayed is 2.5.

Coastal Water Temperatures

Place Temperature

Nearby Weather Stations